createdAt,value
2023-07-19T00:02:24.296Z,70.91
2023-07-19T00:07:25.861Z,71.54
2023-07-19T00:17:29.414Z,72.80
2023-07-19T00:22:32.073Z,73.69
2023-07-19T00:27:33.968Z,73.07
2023-07-19T00:32:35.815Z,73.28
2023-07-19T00:37:37.313Z,73.92
2023-07-19T00:42:38.827Z,72.87
2023-07-19T00:47:40.786Z,72.25
2023-07-19T00:52:42.892Z,74.47
2023-07-19T00:57:44.524Z,74.46
2023-07-19T01:02:46.174Z,75.43
2023-07-19T01:07:47.833Z,75.02
2023-07-19T01:13:09.263Z,73.58
2023-07-19T01:18:10.837Z,74.57
2023-07-19T01:23:13.172Z,75.63
2023-07-19T01:28:16.201Z,75.04
2023-07-19T01:33:28.470Z,75.69
2023-07-19T01:38:36.236Z,74.53
2023-07-19T01:43:37.843Z,74.54
2023-07-19T01:48:39.371Z,76.32
2023-07-19T01:53:40.873Z,76.56
2023-07-19T01:58:44.270Z,76.02
2023-07-19T02:03:45.764Z,78.19
2023-07-19T02:08:48.209Z,76.88
2023-07-19T02:13:49.871Z,76.11
2023-07-19T02:18:51.370Z,76.41
2023-07-19T02:23:52.847Z,73.98
2023-07-19T02:28:55.783Z,71.55
2023-07-19T02:33:57.308Z,70.10
2023-07-19T02:38:58.817Z,69.59
2023-07-19T02:44:00.583Z,68.58
2023-07-19T02:49:02.191Z,69.11
2023-07-19T02:54:03.724Z,69.60
2023-07-19T02:59:06.191Z,69.91
2023-07-19T03:04:07.975Z,71.28
2023-07-19T03:09:12.030Z,71.45
2023-07-19T03:14:13.564Z,72.08
2023-07-19T03:19:15.104Z,71.94
2023-07-19T03:24:17.224Z,72.54
2023-07-19T03:29:18.704Z,72.45
2023-07-19T03:34:20.448Z,73.49
2023-07-19T03:39:21.990Z,74.07
2023-07-19T03:44:23.536Z,73.96
2023-07-19T03:49:26.376Z,74.34
2023-07-19T03:54:28.017Z,75.09
2023-07-19T03:59:31.087Z,75.04
2023-07-19T04:04:32.763Z,76.09
2023-07-19T04:09:34.380Z,76.39
2023-07-19T04:14:35.933Z,76.36
2023-07-19T04:19:37.612Z,77.19
2023-07-19T04:24:39.647Z,77.26
2023-07-19T04:29:41.331Z,76.85
2023-07-19T04:34:42.860Z,75.73
2023-07-19T04:39:44.807Z,73.76
2023-07-19T04:44:47.460Z,73.89
2023-07-19T04:49:49.017Z,73.85
2023-07-19T04:54:51.095Z,74.43
2023-07-19T04:59:52.712Z,72.83
2023-07-19T05:04:54.473Z,76.24
2023-07-19T05:09:56.165Z,78.75
2023-07-19T05:14:57.924Z,77.75
2023-07-19T05:19:59.958Z,77.59
2023-07-19T05:25:04.421Z,77.82
2023-07-19T05:30:06.548Z,76.71
2023-07-19T05:35:08.133Z,74.71
2023-07-19T05:40:10.701Z,74.32
2023-07-19T05:45:12.197Z,71.11
2023-07-19T05:50:13.729Z,72.37
2023-07-19T05:55:16.199Z,73.35
2023-07-19T06:00:30.020Z,75.61
2023-07-19T06:05:31.677Z,74.70
2023-07-19T06:10:33.176Z,75.05
2023-07-19T06:15:34.826Z,74.97
2023-07-19T06:20:36.809Z,75.00
2023-07-19T06:25:38.676Z,75.58
2023-07-19T06:30:40.201Z,75.71
2023-07-19T06:35:41.836Z,75.38
2023-07-19T06:40:43.361Z,74.71
2023-07-19T06:45:48.664Z,73.71
2023-07-19T06:50:51.011Z,73.85
2023-07-19T06:55:58.793Z,74.57
2023-07-19T07:01:00.397Z,74.22
2023-07-19T07:06:04.064Z,73.44
2023-07-19T07:11:05.926Z,71.93
2023-07-19T07:16:07.799Z,75.98
2023-07-19T07:21:09.919Z,83.11
2023-07-19T07:26:11.379Z,90.71
2023-07-19T07:31:13.140Z,90.62
2023-07-19T07:36:15.053Z,90.99
2023-07-19T07:41:17.406Z,94.32
2023-07-19T07:46:18.901Z,93.72
2023-07-19T07:51:20.823Z,92.41
2023-07-19T07:56:24.606Z,93.06
2023-07-19T08:01:26.525Z,93.84
2023-07-19T08:06:28.216Z,92.07
2023-07-19T08:11:29.892Z,90.92
2023-07-19T08:16:31.470Z,91.89
2023-07-19T08:21:36.732Z,90.02
2023-07-19T08:26:39.512Z,92.82
2023-07-19T08:31:40.998Z,96.28
2023-07-19T08:36:42.495Z,96.81
2023-07-19T08:41:44.650Z,92.85
2023-07-19T08:46:47.399Z,93.55
2023-07-19T08:51:49.071Z,93.76
2023-07-19T08:56:50.913Z,95.31
2023-07-19T09:01:52.945Z,93.80
2023-07-19T09:06:54.466Z,93.09
2023-07-19T09:11:55.913Z,92.69
2023-07-19T09:16:57.376Z,91.55
2023-07-19T09:22:04.663Z,88.39
2023-07-19T09:27:06.334Z,87.11
2023-07-19T09:32:08.540Z,88.64
2023-07-19T09:37:11.162Z,86.78
2023-07-19T09:42:14.555Z,83.43
2023-07-19T09:47:28.284Z,80.34
2023-07-19T09:52:36.903Z,79.94
2023-07-19T09:57:41.156Z,76.08
2023-07-19T10:02:42.801Z,72.78
2023-07-19T10:07:51.868Z,69.51
2023-07-19T10:12:54.003Z,67.29
2023-07-19T10:17:57.477Z,64.74
2023-07-19T10:23:09.540Z,64.21
2023-07-19T10:28:13.745Z,62.35
2023-07-19T10:33:20.383Z,62.19
2023-07-19T10:38:26.939Z,61.83
2023-07-19T10:43:46.904Z,61.42
2023-07-19T10:48:53.571Z,59.46
2023-07-19T10:53:59.171Z,60.00
2023-07-19T10:59:02.037Z,57.95
2023-07-19T11:04:08.355Z,58.06
2023-07-19T11:09:10.631Z,51.91
2023-07-19T11:14:28.104Z,50.61
2023-07-19T11:19:47.881Z,49.17
2023-07-19T11:24:53.978Z,50.48
2023-07-19T11:29:55.917Z,53.68
2023-07-19T11:35:01.784Z,51.37
2023-07-19T11:40:06.677Z,52.06
2023-07-19T11:45:20.143Z,48.40
2023-07-19T11:50:24.597Z,48.89
2023-07-19T11:55:26.435Z,43.85
2023-07-19T12:00:28.371Z,44.35
2023-07-19T12:05:30.300Z,43.33
2023-07-19T12:10:31.923Z,41.97
2023-07-19T12:15:33.457Z,41.72
2023-07-19T12:20:35.041Z,43.78
2023-07-19T12:25:36.572Z,43.45
2023-07-19T12:30:38.674Z,44.71
2023-07-19T12:35:40.644Z,43.98
2023-07-19T12:40:43.065Z,44.46
2023-07-19T12:45:44.846Z,44.89
2023-07-19T12:50:46.492Z,45.14
2023-07-19T12:55:47.994Z,44.99
2023-07-19T13:00:49.777Z,45.93
2023-07-19T13:05:51.329Z,45.58
2023-07-19T13:10:52.878Z,44.76
2023-07-19T13:15:54.364Z,45.88
2023-07-19T13:20:57.143Z,44.54
2023-07-19T13:25:58.887Z,44.79
2023-07-19T13:31:01.339Z,43.90
2023-07-19T13:36:03.057Z,43.60
2023-07-19T13:41:04.686Z,44.75
2023-07-19T13:46:06.224Z,45.77
2023-07-19T13:51:07.768Z,46.02
2023-07-19T13:56:09.649Z,45.98
2023-07-19T14:01:13.052Z,46.40
2023-07-19T14:06:17.317Z,48.06
2023-07-19T14:11:18.855Z,48.61
2023-07-19T14:16:20.423Z,50.47
2023-07-19T14:21:22.795Z,49.66
2023-07-19T14:26:25.005Z,51.78
2023-07-19T14:31:26.999Z,52.61
2023-07-19T14:36:28.687Z,51.51
2023-07-19T14:41:30.895Z,49.00
2023-07-19T14:46:34.408Z,49.04
2023-07-19T14:51:36.507Z,50.14
2023-07-19T14:56:38.077Z,48.74
2023-07-19T15:01:39.845Z,49.39
2023-07-19T15:06:42.913Z,48.83
2023-07-19T15:11:46.351Z,48.58
2023-07-19T15:16:49.803Z,48.01
2023-07-19T15:21:51.409Z,48.90
2023-07-19T15:26:53.695Z,49.78
2023-07-19T15:31:56.728Z,48.11
2023-07-19T15:36:58.371Z,48.78
2023-07-19T15:42:00.659Z,51.63
2023-07-19T15:47:03.424Z,52.57
2023-07-19T15:52:07.203Z,55.01
2023-07-19T15:57:08.725Z,59.71
2023-07-19T16:02:10.563Z,58.00
2023-07-19T16:07:14.412Z,56.80
2023-07-19T16:12:16.138Z,57.05
2023-07-19T16:17:17.656Z,55.16
2023-07-19T16:22:19.166Z,54.92
2023-07-19T16:27:20.664Z,52.09
2023-07-19T16:32:22.236Z,50.08
2023-07-19T16:37:23.899Z,51.22
2023-07-19T16:42:25.663Z,51.80
2023-07-19T16:47:28.703Z,52.50
2023-07-19T16:52:30.505Z,52.85
2023-07-19T16:57:32.141Z,53.35
2023-07-19T17:02:33.707Z,53.71
2023-07-19T17:07:35.376Z,53.95
2023-07-19T17:12:36.993Z,54.28
2023-07-19T17:17:38.826Z,54.79
2023-07-19T17:22:41.202Z,55.13
2023-07-19T17:27:42.866Z,56.78
2023-07-19T17:32:46.618Z,56.49
2023-07-19T17:37:50.178Z,55.56
2023-07-19T17:42:51.777Z,53.11
2023-07-19T17:47:53.300Z,54.07
2023-07-19T17:52:55.183Z,55.30
2023-07-19T17:57:57.990Z,55.26
2023-07-19T18:02:59.740Z,54.07
2023-07-19T18:08:15.802Z,55.42
2023-07-19T18:13:21.994Z,55.25
2023-07-19T18:18:23.734Z,56.09
2023-07-19T18:23:26.163Z,56.33
2023-07-19T18:28:27.731Z,55.86
2023-07-19T18:33:29.505Z,57.05
2023-07-19T18:38:31.368Z,56.85
2023-07-19T18:43:33.094Z,57.44
2023-07-19T18:48:34.850Z,57.19
2023-07-19T18:53:37.277Z,57.93
2023-07-19T18:58:38.803Z,57.25
2023-07-19T19:03:40.452Z,58.21
2023-07-19T19:08:42.151Z,59.23
2023-07-19T19:13:43.854Z,59.39
2023-07-19T19:18:45.523Z,59.58
2023-07-19T19:23:47.128Z,59.84
2023-07-19T19:28:48.662Z,60.99
2023-07-19T19:33:50.211Z,61.28
2023-07-19T19:38:51.833Z,62.05
2023-07-19T19:43:53.496Z,61.42
2023-07-19T19:48:55.171Z,62.16
2023-07-19T19:53:56.923Z,62.77
2023-07-19T19:58:58.990Z,63.53
2023-07-19T20:09:05.438Z,64.90
2023-07-19T20:14:16.569Z,66.05
2023-07-19T20:24:26.935Z,66.54
2023-07-19T20:30:01.777Z,67.00
2023-07-19T20:34:57.147Z,67.03
2023-07-19T20:39:59.067Z,66.96
2023-07-19T20:45:00.653Z,67.53
2023-07-19T20:50:03.654Z,67.35
2023-07-19T20:55:05.998Z,67.51
2023-07-19T21:00:08.266Z,67.90
2023-07-19T21:05:09.761Z,68.08
2023-07-19T21:10:11.486Z,68.57
2023-07-19T21:15:13.278Z,69.33
2023-07-19T21:20:14.943Z,69.75
2023-07-19T21:25:18.144Z,69.44
2023-07-19T21:30:19.789Z,70.33
2023-07-19T21:35:21.408Z,70.67
2023-07-19T21:40:23.113Z,71.00
2023-07-19T21:45:25.176Z,72.12
2023-07-19T21:50:26.933Z,72.49
2023-07-19T21:55:28.621Z,72.65
2023-07-19T22:00:41.594Z,73.27
2023-07-19T22:05:45.290Z,73.26
2023-07-19T22:10:47.858Z,73.71
2023-07-19T22:15:49.849Z,74.06
2023-07-19T22:21:01.060Z,75.63
2023-07-19T22:26:09.330Z,75.88
2023-07-19T22:31:10.960Z,75.45
2023-07-19T22:36:12.519Z,75.56
2023-07-19T22:41:15.556Z,75.92
2023-07-19T22:46:19.691Z,77.26
2023-07-19T22:51:22.527Z,77.13
2023-07-19T22:56:24.679Z,77.31
2023-07-19T23:01:26.419Z,78.14
2023-07-19T23:06:28.286Z,79.19
2023-07-19T23:11:29.940Z,79.31
2023-07-19T23:16:31.925Z,79.06
2023-07-19T23:21:33.525Z,79.16
2023-07-19T23:26:35.077Z,79.95
2023-07-19T23:31:36.572Z,79.66
2023-07-19T23:36:38.617Z,80.25
2023-07-19T23:41:40.325Z,80.68
2023-07-19T23:46:42.201Z,80.20
2023-07-19T23:51:43.825Z,80.11
2023-07-19T23:56:45.460Z,81.50
